Terminal Aerodrome Forecast
Issued by NWS Quad Cities IA IL

Home | Current Version | Previous Version | Text Only | Print | Product List | Glossary On
Versions: 1 2 3 4 5 6 7 8 9 10 11 12 13 14 15 16 17 18 19 20 21 22 23 24 25 26 27
355
FTUS43 KDVN 051931 AAA
TAFMLI
TAF AMD
KMLI 051931Z 0520/0618 18011G20KT 3SM BR OVC006
     FM052300 17010KT 2SM BR OVC005
     FM060600 13005KT 1SM BR OVC003
     FM061400 24007KT P6SM BKN025=

USA.gov is the U.S. government's official web portal to all federal, state and local government web resources and services.